Calverton Park, Missouri
Current Conditions -  °F | °C
As of 11:51 PM on Sunday 21 Dec 2014 (Local Time) from KSTL Reporting Station
Overcast Overcast  
Wind Chill: 37°   Ceiling: 4900
Heat Index: 43°   Visibility: 10mi
Dew Point: 31°   Wind: 10mph
Humidity: 62%   Direction: 130°SE
Pressure: 29.93"   Gusts: NA
Location:  38.7497°N, 90.2989°W
Report Text: KSTL 220551Z 13009KT 10SM OVC049 06/M01 A2993 RMK AO2 RAB12E30 SLP140 P0000 60000 T00611006 10067 20061 400720050 58015
Loading
Personal Weather Stations






























Interactive Weather Map New forecast layout! Learn more

10-Day Weather Forecast

Advertisements
Track Severe Weather on mobile